Terminal Aerodrome Forecast
Issued by NWS Melbourne, FL

Home | Current Version | Previous Version | Text Only | Print | Product List | Glossary On
Versions: 1 2 3 4 5 6 7 8 9 10 11 12 13 14
000
FTUS42 KMLB 261700
TAFDAB
TAF
KDAB 261727Z 2618/2718 28008KT P6SM VCTS SCT035CB SCT060 BKN250
      TEMPO 2618/2621 3SM TSRA BKN035CB OVC080
     FM270100 21003KT P6SM FEW040 BKN250
     FM271400 26008KT P6SM SCT030 SCT250=

USA.gov is the U.S. government's official web portal to all federal, state and local government web resources and services.